Domov               UVHVVR             MKGP            O straneh              
ZDRAVSTVENO VARSTVO RASTLIN
  MREŽA AGROMET. POSTAJ
 ► PROGNOSTIČNA OBVESTILA
AGROMETEOROLOŠKI PODATKI -
ARSO
OBVLADOVANJE TVEGANJ ZARADI
NEUGODNIH VREMENSKIH RAZMER
  ► NARAVNE NESREČE
  ► SUŠA/MOČA
  ► NAMAKANJE
  ► ŽLED (gozdarstvo)
KARTOGRAFSKI PRIKAZI
SPLETNE POVEZAVE
PROJEKTI IN PUBLIKACIJE

AGROMETEOROLOŠKA MREŽA: VREMENSKE POSTAJE IN FENOLOŠKA OPAZOVANJA

Pregled podatkov za lokacijo Maribor - BTŠ, meteorološka postaja 35810

Pregled senzorjev na lokaciji

ID Ime Zadnja
vrednost
Datum in čas
zadnje
spremembe
(Lokalni čas)
Tip
senzorja
4297 Omočenost lista (U) 0 U 15.12.2019 06:00 A730WET
1723 Padavine (mm) 0 mm 15.12.2019 06:00 Generic 0.2 mm
1722 Relativna vlaga 2 m (% RH) 85.03 % RH 15.12.2019 06:00 Generic 0 - 100 %
1721 Temperatura 2 m (°C) 0.95 °C 15.12.2019 06:00 Generic -40 - +60 °C
4296 Smer vetra (°) 262.77 ° 15.12.2019 06:00 Generic 0 - 360
4295 Hitrost vetra (km/h) 3.39 km/h 15.12.2019 06:00 Generic 100 km/h

Pregled podatkov zadnjih 24 ur

Zap.
št.
Datum in čas
(Centralno
evropski čas)
Maribor - BTŠ
Omočenost
lista
Padavine Relativna
vlaga
2
m
Temperatura
2
m
Smer
vetra
Hitrost
vetra
1 15.12.2019 07:00
2 15.12.2019 06:30
3 15.12.2019 06:00 0 0 85 1 262.8 3.4
4 15.12.2019 05:30 0 0 86.1 0.8 285.7 3.7
5 15.12.2019 05:00 0 0 87.8 0.5 273.4 3.9
6 15.12.2019 04:30 1 0 88.3 0.3 275.6 3.1
7 15.12.2019 04:00 2 0 87.9 0.4 246.9 2.9
8 15.12.2019 03:30 4 0 87.4 0.6 271.9 3.7
9 15.12.2019 03:00 4 0 87.8 0.6 281.9 3
10 15.12.2019 02:30 3 0 89.8 0.2 279.1 2.9
11 15.12.2019 02:00 1 0 90.3 -0.2 231 1.1
12 15.12.2019 01:30 0 0 87.4 0.7 249 3.2
13 15.12.2019 01:00 1 0 88 0.7 270.9 3.9
14 15.12.2019 00:30 1 0 88.8 0.6 280.7 3.4
15 15.12.2019 00:00 0 0 88.7 0.7 271.9 3.9
16 14.12.2019 23:30 0 0 88.9 0.8 252.2 5
17 14.12.2019 23:00 0 0 89.1 0.9 240.1 5.8
18 14.12.2019 22:30 0 0 89.5 0.9 271.4 6.1
19 14.12.2019 22:00 0 0 89.4 0.9 260.3 5.3
20 14.12.2019 21:30 0 0 88.9 1 276 5.5
21 14.12.2019 21:00 1 0 88.8 1.1 288.9 3.8
22 14.12.2019 20:30 0 0 86.8 1.5 235.9 3.8
23 14.12.2019 20:00 0 0 86.3 1.7 265.7 5.9
24 14.12.2019 19:30 0 0 87.4 1.6 276.1 5.1
25 14.12.2019 19:00 1 0 87.9 1.6 273 6
26 14.12.2019 18:30 3 0 89.1 1.6 274.5 4.5
27 14.12.2019 18:00 2 0 90.2 1.4 273.2 3.1
28 14.12.2019 17:30 1 0 89.6 1.7 280.3 3.3
29 14.12.2019 17:00 0 0 87.6 2.2 282.3 4.2
30 14.12.2019 16:30 0 0 86.6 2.7 266.5 4.8
31 14.12.2019 16:00 0 0 83.6 3.3 274.6 4.9
32 14.12.2019 15:30 0 0 78.4 4.6 263.4 3.2
33 14.12.2019 15:00 0 0 77.9 5 242.7 3.1
34 14.12.2019 14:30 0 0.2 77.3 5 296.5 4.5
35 14.12.2019 14:00 0 0.8 76.4 5.2 290.9 3.3
36 14.12.2019 13:30 0 1.4 78 4.6 289.4 3.3
37 14.12.2019 13:00 0 1.8 79 4.3 250.7 3.4
38 14.12.2019 12:30 0 1.4 82.4 3.6 262.4 3.1
39 14.12.2019 12:00 0 0.8 85.3 3.1 277.7 1.6
40 14.12.2019 11:30 0 0.8 85.9 2.6 250.2 2.4
41 14.12.2019 11:00 0 1.2 83.7 3 277.5 2
42 14.12.2019 10:30 0 1.2 83 3.6 266.1 2.4
43 14.12.2019 10:00 0 1 85.1 2.7 274.5 2.2
44 14.12.2019 09:30 1 0 88.5 1.7 250.5 3.8
45 14.12.2019 09:00 10 0 92.9 0.9 277.6 3.4
46 14.12.2019 08:30 7 0 94.4 0.4 266.5 2.1
47 14.12.2019 08:00 9 0 94.2 0.4 253.5 3.4
48 14.12.2019 07:30 9 0 93.9 0.6 264.3 3.2
© 2011 Ministrstvo za kmetijstvo, gozdarstvo in prehrano. Vse pravice pridržane.